Time;durP1;ratioP1;P1;durP2;ratioP2;P2;SDS_P1;SDS_P2;PMS_P1;PMS_P2;Temp;Humidity;BMP_temperature;BMP_pressure;BME280_temperature;BME280_humidity;BME280_pressure;Samples;Min_cycle;Max_cycle;Signal;HPM_P1;HPM_P2
2023/09/18 00:01:00;;;;;;;5.22;4.25;;;;;;;;;;6135377;23;20078;-76
2023/09/18 00:03:26;;;;;;;4.18;3.85;;;;;;;;;;6125217;23;20061;-76
2023/09/18 00:05:53;;;;;;;4.60;4.15;;;;;;;;;;6125199;23;20077;-76
2023/09/18 00:08:19;;;;;;;4.53;4.13;;;;;;;;;;6135151;23;20002;-76
2023/09/18 00:10:54;;;;;;;4.95;3.83;;;23.60;66.90;;;;;;6135451;23;20377;-76
2023/09/18 00:13:21;;;;;;;5.68;4.18;;;23.70;71.50;;;;;;6135357;23;19998;-76
2023/09/18 00:15:48;;;;;;;4.60;4.20;;;;;;;;;;6125756;23;19994;-76
2023/09/18 00:18:17;;;;;;;5.93;3.90;;;23.80;67.00;;;;;;6135150;23;20033;-76
2023/09/18 00:20:43;;;;;;;4.35;3.95;;;;;;;;;;6135193;23;20049;-76
2023/09/18 00:23:09;;;;;;;4.57;4.18;;;;;;;;;;6135178;23;19994;-76
2023/09/18 00:25:36;;;;;;;4.18;3.78;;;;;;;;;;6134979;23;20330;-76
2023/09/18 00:28:03;;;;;;;3.85;3.55;;;;;;;;;;6135083;23;20002;-76
2023/09/18 00:30:29;;;;;;;3.88;3.58;;;;;;;;;;6135164;23;20060;-76
2023/09/18 00:32:55;;;;;;;4.68;4.13;;;;;;;;;;6135704;23;20366;-76
2023/09/18 00:35:22;;;;;;;3.97;3.63;;;;;;;;;;6135136;23;20005;-76
2023/09/18 00:37:48;;;;;;;4.28;3.88;;;;;;;;;;6134952;23;20454;-76
2023/09/18 00:40:15;;;;;;;4.40;4.00;;;;;;;;;;6135142;23;19998;-76
2023/09/18 00:42:41;;;;;;;3.92;3.58;;;;;;;;;;6135065;23;20009;-76
2023/09/18 00:45:08;;;;;;;4.38;3.97;;;;;;;;;;6135055;23;20133;-76
2023/09/18 00:47:36;;;;;;;3.42;3.13;;;;;;;;;;6125428;23;20433;-76
2023/09/18 00:50:03;;;;;;;4.25;3.95;;;23.70;70.00;;;;;;6125579;23;20006;-76
2023/09/18 00:52:29;;;;;;;5.07;4.07;;;;;;;;;;6124963;23;20005;-76
2023/09/18 00:54:56;;;;;;;4.50;4.10;;;;;;;;;;6124998;23;20022;-76
2023/09/18 00:57:23;;;;;;;4.00;3.70;;;23.60;71.20;;;;;;6124765;23;20014;-76
2023/09/18 00:59:49;;;;;;;4.40;4.00;;;;;;;;;;6125038;23;20426;-76
2023/09/18 01:02:15;;;;;;;4.07;3.78;;;;;;;;;;6125591;23;20022;-76
2023/09/18 01:04:43;;;;;;;4.50;3.20;;;;;;;;;;6125472;23;20334;-76
2023/09/18 01:07:10;;;;;;;3.85;3.55;;;;;;;;;;6125376;23;20002;-76
2023/09/18 01:09:37;;;;;;;3.53;3.22;;;;;;;;;;6124954;23;19998;-76
2023/09/18 01:12:52;;;;;;;4.03;3.63;;;23.60;66.90;;;;;;6125188;23;20013;-76
2023/09/18 01:15:30;;;;;;;3.67;3.38;;;23.70;73.00;;;;;;5978776;24;20351;-74
2023/09/18 01:17:56;;;;;;;4.30;3.90;;;;;;;;;;6121170;23;20080;-74
2023/09/18 01:20:23;;;;;;;4.13;3.72;;;;;;;;;;6125052;23;20009;-74
2023/09/18 01:22:49;;;;;;;3.90;3.60;;;;;;;;;;6134379;23;20446;-74
2023/09/18 01:25:16;;;;;;;3.85;3.55;;;;;;;;;;6134561;23;19994;-74
2023/09/18 01:27:42;;;;;;;4.07;3.70;;;;;;;;;;6134437;23;19994;-74
2023/09/18 01:30:08;;;;;;;3.90;3.45;;;;;;;;;;6135033;23;20029;-74
2023/09/18 01:32:36;;;;;;;4.10;3.70;;;23.70;72.70;;;;;;6134365;23;19998;-74
2023/09/18 01:35:05;;;;;;;3.90;3.60;;;23.70;72.60;;;;;;6134471;23;20374;-74
2023/09/18 01:37:32;;;;;;;3.80;3.50;;;23.60;71.20;;;;;;6098439;23;20405;-74
2023/09/18 01:39:59;;;;;;;3.60;3.30;;;;;;;;;;6134453;23;20021;-74
2023/09/18 01:42:26;;;;;;;3.80;3.50;;;23.60;69.50;;;;;;6134373;23;20145;-75
2023/09/18 01:44:54;;;;;;;2.85;2.65;;;23.70;70.70;;;;;;6134354;23;20445;-75
2023/09/18 01:47:21;;;;;;;3.17;2.88;;;23.60;72.70;;;;;;6134325;23;20006;-74
2023/09/18 01:49:47;;;;;;;3.38;3.08;;;;;;;;;;6134299;23;19994;-74
2023/09/18 01:52:14;;;;;;;3.13;2.90;;;;;;;;;;6134344;23;20002;-74
2023/09/18 01:54:40;;;;;;;4.07;3.67;;;;;;;;;;6134384;23;20045;-74
2023/09/18 01:57:09;;;;;;;3.50;3.20;;;;;;;;;;6134340;23;20017;-74
2023/09/18 01:59:35;;;;;;;3.67;3.37;;;;;;;;;;6134951;23;20001;-74
2023/09/18 02:02:03;;;;;;;3.42;3.13;;;;;;;;;;6134006;23;20014;-74
2023/09/18 02:04:29;;;;;;;3.60;3.30;;;;;;;;;;6124948;23;20045;-74
2023/09/18 02:06:57;;;;;;;3.45;3.10;;;23.60;71.60;;;;;;6134374;23;19998;-74
2023/09/18 02:09:23;;;;;;;2.97;2.78;;;;;;;;;;6134396;23;20028;-76
2023/09/18 02:11:49;;;;;;;3.42;3.20;;;;;;;;;;6134375;23;20002;-76
2023/09/18 02:14:15;;;;;;;3.10;2.88;;;;;;;;;;6098659;23;20505;-76
2023/09/18 02:16:43;;;;;;;3.72;3.42;;;23.60;72.40;;;;;;6134226;23;20013;-76
2023/09/18 02:19:09;;;;;;;2.85;2.65;;;;;;;;;;6134416;23;20002;-76
2023/09/18 02:21:35;;;;;;;3.47;3.17;;;;;;;;;;6134597;23;20057;-76
2023/09/18 02:24:01;;;;;;;3.25;3.05;;;;;;;;;;6134486;23;20076;-76
2023/09/18 02:26:28;;;;;;;3.25;2.92;;;;;;;;;;6134530;23;20398;-76
2023/09/18 02:28:54;;;;;;;3.10;2.80;;;;;;;;;;6134880;23;20009;-76
2023/09/18 02:31:20;;;;;;;3.30;3.08;;;;;;;;;;6136130;23;20052;-76
2023/09/18 02:33:47;;;;;;;3.15;2.95;;;;;;;;;;6136161;23;19998;-76
2023/09/18 02:36:13;;;;;;;3.35;3.08;;;;;;;;;;6126564;23;20382;-76
2023/09/18 02:38:39;;;;;;;3.08;2.88;;;;;;;;;;6135900;23;20010;-76
2023/09/18 02:41:05;;;;;;;3.42;3.08;;;;;;;;;;6135975;23;19994;-76
2023/09/18 02:43:31;;;;;;;2.60;2.40;;;;;;;;;;6136059;23;20006;-76
2023/09/18 02:45:57;;;;;;;3.20;3.00;;;;;;;;;;6136575;23;19998;-74
2023/09/18 02:48:23;;;;;;;3.05;2.83;;;;;;;;;;6126395;23;20013;-74
2023/09/18 02:50:49;;;;;;;2.83;2.63;;;;;;;;;;6135907;23;20326;-74
2023/09/18 02:53:20;;;;;;;3.13;2.47;;;23.50;66.70;;;;;;6126317;23;20337;-74
2023/09/18 02:55:51;;;;;;;4.18;2.90;;;23.60;66.90;;;;;;6135874;23;19998;-74
2023/09/18 02:58:19;;;;;;;2.75;2.55;;;;;;;;;;6136207;23;20129;-76
2023/09/18 03:00:45;;;;;;;2.58;2.38;;;;;;;;;;6126090;23;19998;-76
2023/09/18 03:03:11;;;;;;;3.35;3.05;;;;;;;;;;6135705;23;20065;-76
2023/09/18 03:05:37;;;;;;;2.53;2.33;;;;;;;;;;6135933;23;19998;-75
2023/09/18 03:08:04;;;;;;;2.75;2.55;;;;;;;;;;6135753;23;19998;-75
2023/09/18 03:10:34;;;;;;;2.95;2.70;;;23.40;67.10;;;;;;6136003;23;20008;-75
2023/09/18 03:13:00;;;;;;;4.38;2.70;;;;;;;;;;6135707;23;19994;-75
2023/09/18 03:15:26;;;;;;;3.10;2.90;;;;;;;;;;6126589;23;20370;-74
2023/09/18 03:17:52;;;;;;;2.85;2.65;;;;;;;;;;6135394;23;20045;-73
2023/09/18 03:20:18;;;;;;;3.38;2.83;;;;;;;;;;6135564;23;19994;-73
2023/09/18 03:22:44;;;;;;;3.42;3.10;;;;;;;;;;6135536;23;20389;-73
2023/09/18 03:25:10;;;;;;;3.22;2.92;;;;;;;;;;6135653;23;19998;-73
2023/09/18 03:27:36;;;;;;;3.20;2.90;;;;;;;;;;6135712;23;20002;-73
2023/09/18 03:30:02;;;;;;;3.92;2.97;;;;;;;;;;6135463;23;19994;-73
2023/09/18 03:32:28;;;;;;;3.08;2.78;;;;;;;;;;6135719;23;20081;-73
2023/09/18 03:34:54;;;;;;;3.08;2.83;;;;;;;;;;6135876;23;20076;-74
2023/09/18 03:37:20;;;;;;;2.92;2.63;;;;;;;;;;6135837;23;20016;-73
2023/09/18 03:39:46;;;;;;;2.17;2.00;;;;;;;;;;6135429;23;19999;-73
2023/09/18 03:42:12;;;;;;;2.20;2.10;;;;;;;;;;6136026;23;20353;-74
2023/09/18 03:44:38;;;;;;;3.17;2.42;;;;;;;;;;6135472;23;20002;-74
2023/09/18 03:47:05;;;;;;;2.85;2.65;;;;;;;;;;6135372;23;20033;-74
2023/09/18 03:49:31;;;;;;;2.60;2.40;;;;;;;;;;6125680;23;20013;-73
2023/09/18 03:51:57;;;;;;;2.60;2.40;;;;;;;;;;6125924;23;20002;-74
2023/09/18 03:54:24;;;;;;;2.50;2.30;;;;;;;;;;6125945;23;20012;-74
2023/09/18 03:56:50;;;;;;;3.45;2.80;;;;;;;;;;6125699;23;20307;-73
2023/09/18 03:59:17;;;;;;;3.25;2.35;;;;;;;;;;6125848;23;20009;-74
2023/09/18 04:08:26;;;;;;;2.92;2.55;;;;;;;;;;6106281;23;20010;-82
2023/09/18 04:10:57;;;;;;;3.53;2.72;;;;;;;;;;6096607;23;20002;-82
2023/09/18 04:13:23;;;;;;;2.45;2.25;;;;;;;;;;6096123;23;20011;-82
2023/09/18 04:15:51;;;;;;;2.85;2.58;;;;;;;;;;6096518;23;20002;-82
2023/09/18 04:18:18;;;;;;;2.53;2.10;;;;;;;;;;6096226;23;20011;-83
2023/09/18 04:20:44;;;;;;;2.22;2.13;;;;;;;;;;6096470;23;20002;-82
2023/09/18 04:23:21;;;;;;;2.22;2.10;;;23.40;67.00;;;;;;6096427;23;20114;-82
2023/09/18 04:25:48;;;;;;;2.92;2.08;;;23.50;70.40;;;;;;6096419;23;20413;-82
2023/09/18 04:28:15;;;;;;;2.33;2.13;;;;;;;;;;6096453;23;20025;-82
2023/09/18 04:30:41;;;;;;;2.60;2.40;;;;;;;;;;6105866;23;19999;-82
2023/09/18 04:33:07;;;;;;;2.35;2.15;;;;;;;;;;6096388;23;20010;-82
2023/09/18 04:35:34;;;;;;;2.03;1.92;;;;;;;;;;6097005;23;20006;-82
2023/09/18 04:38:00;;;;;;;3.10;2.30;;;;;;;;;;6095979;23;20049;-82
2023/09/18 04:40:31;;;;;;;2.83;2.55;;;;;;;;;;6096471;23;19998;-82
2023/09/18 04:43:02;;;;;;;2.22;2.08;;;23.40;67.20;;;;;;6096398;23;20307;-82
2023/09/18 04:45:28;;;;;;;2.28;2.08;;;;;;;;;;6095988;23;19995;-82
2023/09/18 04:47:54;;;;;;;2.30;2.10;;;;;;;;;;6095951;23;20010;-82
2023/09/18 04:50:21;;;;;;;1.90;1.80;;;;;;;;;;6096167;23;20003;-82
2023/09/18 04:52:48;;;;;;;2.13;1.85;;;;;;;;;;6096048;23;20085;-82
2023/09/18 04:55:15;;;;;;;2.22;1.95;;;;;;;;;;6095660;23;20006;-82
2023/09/18 04:57:41;;;;;;;2.30;2.10;;;;;;;;;;6096042;23;20101;-82
2023/09/18 05:00:08;;;;;;;2.40;2.10;;;;;;;;;;6096156;23;20006;-82
2023/09/18 05:02:36;;;;;;;2.42;2.22;;;;;;;;;;6095797;23;20066;-82
2023/09/18 05:05:03;;;;;;;2.38;2.17;;;;;;;;;;6096680;23;20009;-82
2023/09/18 05:07:30;;;;;;;2.40;2.08;;;;;;;;;;6095857;23;20438;-81
2023/09/18 05:09:56;;;;;;;2.30;2.10;;;;;;;;;;6096166;23;19998;-82
2023/09/18 05:12:23;;;;;;;2.20;2.00;;;;;;;;;;6105639;23;20041;-82
2023/09/18 05:14:49;;;;;;;3.33;2.35;;;;;;;;;;6105654;23;19998;-87
2023/09/18 05:17:16;;;;;;;2.38;2.17;;;23.40;73.00;;;;;;6095731;23;20014;-78
2023/09/18 05:19:42;;;;;;;2.60;2.33;;;;;;;;;;6113179;23;20022;-82
2023/09/18 05:22:12;;;;;;;2.75;2.10;;;;;;;;;;6096125;23;19999;-85
2023/09/18 05:24:39;;;;;;;2.40;2.00;;;;;;;;;;6096479;23;20077;-79
2023/09/18 05:27:07;;;;;;;2.53;1.98;;;;;;;;;;6095545;23;20002;-79
2023/09/18 05:29:36;;;;;;;4.32;1.83;;;23.40;73.30;;;;;;6095991;23;20013;-84
2023/09/18 05:32:03;;;;;;;2.17;1.98;;;;;;;;;;6096121;23;20005;-76
2023/09/18 05:34:31;;;;;;;1.67;1.55;;;;;;;;;;6095925;23;20010;-77
2023/09/18 05:36:57;;;;;;;2.33;1.83;;;;;;;;;;6095588;23;20283;-77
2023/09/18 05:39:24;;;;;;;1.70;1.60;;;;;;;;;;6095330;23;20490;-78
2023/09/18 05:41:50;;;;;;;1.90;1.65;;;;;;;;;;6095825;23;20074;-78
2023/09/18 05:44:16;;;;;;;1.83;1.67;;;;;;;;;;6095819;23;20009;-78
2023/09/18 05:46:43;;;;;;;1.40;1.30;;;;;;;;;;6095855;23;20060;-79
2023/09/18 05:49:10;;;;;;;2.53;1.58;;;;;;;;;;6095529;23;20565;-81
2023/09/18 05:51:36;;;;;;;3.55;1.83;;;;;;;;;;6096051;23;20078;-88
2023/09/18 05:54:03;;;;;;;1.73;1.60;;;;;;;;;;6095735;23;20139;-83
2023/09/18 05:56:29;;;;;;;1.80;1.70;;;;;;;;;;6096038;23;20497;-88
2023/09/18 05:58:55;;;;;;;2.10;1.90;;;;;;;;;;6095678;23;20021;-85
2023/09/18 06:01:22;;;;;;;1.75;1.40;;;;;;;;;;6096489;23;20321;-84
2023/09/18 06:03:48;;;;;;;1.95;1.40;;;;;;;;;;6096130;23;20453;-85
2023/09/18 06:06:14;;;;;;;2.00;1.65;;;;;;;;;;6107452;23;19994;-85
2023/09/18 06:08:40;;;;;;;2.03;1.48;;;;;;;;;;6107440;23;19998;-82
2023/09/18 06:11:06;;;;;;;3.67;1.60;;;;;;;;;;6107134;23;20030;-79
2023/09/18 06:13:34;;;;;;;2.25;1.60;;;;;;;;;;6107091;23;20002;-80
2023/09/18 06:16:05;;;;;;;3.20;2.00;;;;;;;;;;6107230;23;20081;-80
2023/09/18 06:18:32;;;;;;;2.75;1.60;;;;;;;;;;6097537;23;20018;-77
2023/09/18 06:20:58;;;;;;;1.70;1.60;;;;;;;;;;6097310;23;19999;-77
2023/09/18 06:23:25;;;;;;;1.73;1.63;;;;;;;;;;6097578;23;20013;-77
2023/09/18 06:25:56;;;;;;;2.30;1.58;;;;;;;;;;6097568;23;20041;-79
2023/09/18 06:28:23;;;;;;;3.97;1.40;;;23.40;73.70;;;;;;6097067;23;20006;-79
2023/09/18 06:30:49;;;;;;;2.45;1.45;;;;;;;;;;6097852;23;20009;-79
2023/09/18 06:33:15;;;;;;;6.30;1.60;;;;;;;;;;6106855;23;20190;-78
2023/09/18 06:35:41;;;;;;;1.95;1.50;;;;;;;;;;6097219;23;20007;-81
2023/09/18 06:38:10;;;;;;;1.50;1.40;;;;;;;;;;6097115;23;20014;-81
2023/09/18 06:40:36;;;;;;;2.55;1.38;;;;;;;;;;6097615;23;20376;-81
2023/09/18 06:43:02;;;;;;;4.85;1.55;;;;;;;;;;6107220;23;20006;-80
2023/09/18 06:45:28;;;;;;;1.90;1.52;;;;;;;;;;6107345;23;19994;-81
2023/09/18 06:47:55;;;;;;;2.85;1.45;;;;;;;;;;6097490;23;20333;-80
2023/09/18 06:50:21;;;;;;;1.48;1.33;;;;;;;;;;6097334;23;20073;-81
2023/09/18 06:52:49;;;;;;;2.55;1.83;;;;;;;;;;6097423;23;20002;-80
2023/09/18 06:55:16;;;;;;;1.80;1.40;;;;;;;;;;6096996;23;20073;-80
2023/09/18 06:57:43;;;;;;;1.60;1.40;;;;;;;;;;6097738;23;20263;-80
2023/09/18 07:00:09;;;;;;;2.45;1.27;;;;;;;;;;6097190;23;20386;-81
2023/09/18 07:02:35;;;;;;;1.38;1.25;;;;;;;;;;6106411;23;20018;-79
2023/09/18 07:05:01;;;;;;;1.42;1.30;;;;;;;;;;6106580;23;20449;-80
2023/09/18 07:07:28;;;;;;;2.38;1.13;;;;;;;;;;6106680;23;20002;-80
2023/09/18 07:09:54;;;;;;;1.30;1.20;;;;;;;;;;6096939;23;19999;-80
2023/09/18 07:12:20;;;;;;;1.42;1.10;;;;;;;;;;6106965;23;20002;-80
2023/09/18 07:14:47;;;;;;;1.83;1.27;;;;;;;;;;6097020;23;20024;-80
2023/09/18 07:17:14;;;;;;;3.55;1.50;;;;;;;;;;6096564;23;20007;-81
2023/09/18 07:19:40;;;;;;;2.15;1.30;;;;;;;;;;6097103;23;20006;-80
2023/09/18 07:22:06;;;;;;;1.20;1.10;;;;;;;;;;6097057;23;20069;-80
2023/09/18 07:24:33;;;;;;;1.65;1.23;;;;;;;;;;6096674;23;20316;-80
2023/09/18 07:26:59;;;;;;;2.22;1.20;;;;;;;;;;6097650;23;20061;-80
2023/09/18 07:29:26;;;;;;;2.22;1.30;;;;;;;;;;6096953;23;20003;-80
2023/09/18 07:31:52;;;;;;;2.78;1.30;;;;;;;;;;6097028;23;20333;-80
2023/09/18 07:34:19;;;;;;;1.90;1.20;;;;;;;;;;6096824;23;20009;-80
2023/09/18 07:36:45;;;;;;;1.65;1.48;;;;;;;;;;6096537;23;20009;-80
2023/09/18 07:39:12;;;;;;;1.73;1.23;;;;;;;;;;6096868;23;20378;-80
2023/09/18 07:41:39;;;;;;;1.90;1.30;;;;;;;;;;6096392;23;20003;-80
2023/09/18 07:44:05;;;;;;;2.35;1.35;;;;;;;;;;6096850;23;20006;-80
2023/09/18 07:46:31;;;;;;;1.88;0.93;;;;;;;;;;6106328;23;19998;-79
2023/09/18 07:48:57;;;;;;;1.90;1.33;;;;;;;;;;6106300;23;20006;-79
2023/09/18 07:51:24;;;;;;;1.23;1.10;;;;;;;;;;6096662;23;20029;-79
2023/09/18 07:53:50;;;;;;;1.52;1.10;;;;;;;;;;6096363;23;20056;-80
2023/09/18 07:56:18;;;;;;;2.08;1.00;;;;;;;;;;6096975;23;20006;-80
2023/09/18 07:58:46;;;;;;;1.30;1.20;;;;;;;;;;6096625;23;20038;-80
2023/09/18 08:01:13;;;;;;;1.30;1.20;;;;;;;;;;6096222;23;20492;-81
2023/09/18 08:03:41;;;;;;;2.92;1.20;;;;;;;;;;6096194;23;20019;-80
2023/09/18 08:06:07;;;;;;;1.65;1.20;;;;;;;;;;6096420;23;20003;-80
2023/09/18 08:08:33;;;;;;;1.30;1.15;;;;;;;;;;6096726;23;20053;-82
2023/09/18 08:11:06;;;;;;;1.67;0.88;;;23.40;74.10;;;;;;6106100;23;20438;-82
2023/09/18 08:13:32;;;;;;;2.47;1.10;;;;;;;;;;6106034;23;20338;-82
2023/09/18 08:16:00;;;;;;;1.05;0.82;;;;;;;;;;6096655;23;20425;-82
2023/09/18 08:18:30;;;;;;;3.15;0.95;;;;;;;;;;6096519;23;20014;-82
2023/09/18 08:20:57;;;;;;;3.30;1.20;;;;;;;;;;6106018;23;20322;-82
2023/09/18 08:23:24;;;;;;;1.20;1.00;;;23.40;70.80;;;;;;6096170;23;20006;-82
2023/09/18 08:25:51;;;;;;;1.52;1.10;;;;;;;;;;6105817;23;20042;-81
2023/09/18 08:28:18;;;;;;;1.40;0.98;;;;;;;;;;6096476;23;20002;-82
2023/09/18 08:30:47;;;;;;;2.60;1.10;;;;;;;;;;6096491;23;20307;-81
2023/09/18 08:33:14;;;;;;;1.55;1.08;;;23.40;74.20;;;;;;6096506;23;20003;-81
2023/09/18 08:35:40;;;;;;;4.93;1.08;;;;;;;;;;6096321;23;20006;-81
2023/09/18 08:38:07;;;;;;;1.80;0.88;;;;;;;;;;6096089;23;20443;-81
2023/09/18 08:40:34;;;;;;;1.63;0.90;;;23.60;71.60;;;;;;6096003;23;20522;-81
2023/09/18 08:43:03;;;;;;;1.42;1.02;;;;;;;;;;6096100;23;19998;-82
2023/09/18 08:45:45;;;;;;;1.60;1.00;;;23.60;69.10;;;;;;6096963;23;19998;-80
2023/09/18 08:48:11;;;;;;;1.33;0.82;;;;;;;;;;6096153;23;20002;-80
2023/09/18 08:50:38;;;;;;;1.40;0.73;;;23.60;74.10;;;;;;6106028;23;20334;-81
2023/09/18 08:53:04;;;;;;;1.52;1.17;;;;;;;;;;6080916;23;19998;-81
2023/09/18 08:55:32;;;;;;;1.92;0.88;;;;;;;;;;6071457;23;20003;-80
2023/09/18 08:57:59;;;;;;;3.10;0.77;;;;;;;;;;6071106;23;20093;-81
2023/09/18 09:00:26;;;;;;;1.20;0.90;;;;;;;;;;6080322;23;20449;-79
2023/09/18 09:02:54;;;;;;;2.08;0.80;;;;;;;;;;6087646;23;20050;-80
2023/09/18 09:05:20;;;;;;;1.00;0.85;;;;;;;;;;6066883;23;20003;-76
2023/09/18 09:07:46;;;;;;;2.72;1.00;;;;;;;;;;6076694;23;20018;-80
2023/09/18 09:10:16;;;;;;;1.90;0.90;;;;;;;;;;6066728;23;20007;-81
2023/09/18 09:12:53;;;;;;;2.10;0.90;;;23.80;69.20;;;;;;6067027;23;19999;-81
2023/09/18 09:15:21;;;;;;;1.42;0.70;;;23.80;74.20;;;;;;6066875;23;20074;-81
2023/09/18 09:17:54;;;;;;;1.42;0.88;;;;;;;;;;6066895;23;20015;-81
2023/09/18 09:20:21;;;;;;;0.98;0.88;;;;;;;;;;6067224;23;20062;-81
2023/09/18 09:22:47;;;;;;;0.98;0.70;;;;;;;;;;6067110;23;20003;-81
2023/09/18 09:25:28;;;;;;;1.98;0.77;;;23.70;69.20;;;;;;6067184;23;20363;-82
2023/09/18 09:27:55;;;;;;;1.10;1.00;;;23.80;72.00;;;;;;6067089;23;19999;-82
2023/09/18 09:30:24;;;;;;;1.45;0.85;;;23.70;74.90;;;;;;6067232;23;20030;-82
2023/09/18 09:32:55;;;;;;;1.05;0.90;;;23.80;74.60;;;;;;6066702;23;19999;-82
2023/09/18 09:35:30;;;;;;;1.60;0.70;;;23.80;74.70;;;;;;6066998;23;20018;-81
2023/09/18 09:38:08;;;;;;;2.60;0.90;;;23.50;69.20;;;;;;6066594;23;20093;-82
2023/09/18 09:40:35;;;;;;;1.02;1.00;;;;;;;;;;6067083;23;20282;-82
2023/09/18 09:43:04;;;;;;;0.95;0.60;;;23.80;74.30;;;;;;6066715;23;20449;-82
2023/09/18 09:45:38;;;;;;;1.00;0.80;;;23.80;74.40;;;;;;6066685;23;20021;-81
2023/09/18 09:48:06;;;;;;;2.75;1.05;;;23.80;74.20;;;;;;6067407;23;20271;-82
2023/09/18 09:50:33;;;;;;;3.47;0.90;;;23.80;71.40;;;;;;6066916;23;20296;-82
2023/09/18 09:52:59;;;;;;;1.20;0.88;;;;;;;;;;6076271;23;20006;-82
2023/09/18 09:55:25;;;;;;;1.17;0.88;;;;;;;;;;6050957;23;20058;-82
2023/09/18 09:57:59;;;;;;;1.35;0.98;;;23.90;68.80;;;;;;6076089;23;20066;-82
2023/09/18 10:00:55;;;;;;;1.23;0.73;;;23.50;68.40;;;;;;6076167;23;20018;-82
2023/09/18 10:03:21;;;;;;;2.63;0.90;;;;;;;;;;6080402;23;20022;-82
2023/09/18 10:05:50;;;;;;;1.77;1.08;;;23.90;74.30;;;;;;6105088;23;20429;-82
2023/09/18 10:08:27;;;;;;;1.98;0.90;;;23.70;68.50;;;;;;6134123;23;19994;-82
2023/09/18 10:10:56;;;;;;;2.45;0.77;;;23.90;74.10;;;;;;6134307;23;20088;-82
2023/09/18 10:13:32;;;;;;;1.65;1.10;;;23.90;68.50;;;;;;6124609;23;19998;-82
2023/09/18 10:16:04;;;;;;;1.95;1.10;;;;;;;;;;6134984;23;20045;-82
2023/09/18 10:18:52;;;;;;;1.60;0.90;;;23.90;68.10;;;;;;6125132;23;20020;-82
2023/09/18 10:21:31;;;;;;;1.77;0.95;;;23.90;73.90;;;;;;6134475;23;19999;-82
2023/09/18 10:24:07;;;;;;;1.23;1.13;;;24.00;68.20;;;;;;6134480;23;19998;-82
2023/09/18 10:26:38;;;;;;;4.35;1.30;;;23.90;73.70;;;;;;6124896;23;20025;-82
2023/09/18 10:29:05;;;;;;;1.75;1.00;;;;;;;;;;6124955;23;20330;-82
2023/09/18 10:31:34;;;;;;;1.98;1.10;;;24.00;73.80;;;;;;6124877;23;20333;-82
2023/09/18 10:34:02;;;;;;;1.07;0.93;;;24.00;73.70;;;;;;6124835;23;19994;-82
2023/09/18 10:36:30;;;;;;;1.92;1.00;;;24.00;72.00;;;;;;6124895;23;20005;-82
2023/09/18 10:38:58;;;;;;;2.63;1.55;;;23.90;70.50;;;;;;6124732;23;20141;-82
2023/09/18 10:41:26;;;;;;;1.30;1.10;;;24.00;73.60;;;;;;6124756;23;19997;-82
2023/09/18 10:43:57;;;;;;;3.00;1.10;;;23.90;73.70;;;;;;6125321;23;20077;-82
2023/09/18 10:46:25;;;;;;;1.92;1.20;;;24.00;73.70;;;;;;6124778;23;20017;-82
2023/09/18 10:48:52;;;;;;;2.20;1.10;;;;;;;;;;6124807;23;20373;-82
2023/09/18 10:51:23;;;;;;;0.95;0.90;;;24.00;68.20;;;;;;6126431;23;20017;-82
2023/09/18 10:53:50;;;;;;;2.00;1.10;;;;;;;;;;6126182;23;20001;-82
2023/09/18 10:56:16;;;;;;;1.65;0.95;;;;;;;;;;6126181;23;20472;-82
2023/09/18 10:58:43;;;;;;;3.22;1.23;;;24.00;73.60;;;;;;6126450;23;20017;-82
2023/09/18 11:01:12;;;;;;;1.52;1.00;;;24.00;73.60;;;;;;6126571;23;19998;-82
2023/09/18 11:03:39;;;;;;;1.70;1.20;;;;;;;;;;6126118;23;20085;-82
2023/09/18 11:06:09;;;;;;;4.80;1.52;;;24.10;73.90;;;;;;6126406;23;20437;-82
2023/09/18 11:08:35;;;;;;;3.08;1.17;;;;;;;;;;6126317;23;20002;-82
2023/09/18 11:11:14;;;;;;;1.63;1.10;;;24.20;67.80;;;;;;6126367;23;20013;-82
2023/09/18 11:13:43;;;;;;;1.35;1.13;;;24.10;73.40;;;;;;6126690;23;20001;-82
2023/09/18 11:16:27;;;;;;;2.97;1.42;;;24.10;68.20;;;;;;6126287;23;19998;-83
2023/09/18 11:19:05;;;;;;;2.45;1.05;;;24.10;73.60;;;;;;6125788;23;20010;-83
2023/09/18 11:21:32;;;;;;;3.92;1.48;;;24.00;73.40;;;;;;6126346;23;20061;-83
2023/09/18 11:24:04;;;;;;;2.78;1.27;;;24.10;68.20;;;;;;6126041;23;19998;-82
2023/09/18 11:26:34;;;;;;;2.88;1.20;;;24.10;71.30;;;;;;6126557;23;20024;-82
2023/09/18 11:29:05;;;;;;;2.28;1.50;;;24.10;71.40;;;;;;6126355;23;20357;-82
2023/09/18 11:31:50;;;;;;;2.47;1.00;;;24.30;67.70;;;;;;6126333;23;20006;-82
2023/09/18 11:34:21;;;;;;;2.05;0.93;;;24.40;67.40;;;;;;6126188;23;20310;-82
2023/09/18 11:36:48;;;;;;;2.00;1.02;;;;;;;;;;6125827;23;20441;-82
2023/09/18 11:39:37;;;;;;;1.40;1.08;;;24.50;72.30;;;;;;6125781;23;20010;-82
2023/09/18 11:42:20;;;;;;;2.45;1.25;;;24.50;66.70;;;;;;6126387;23;19994;-83
2023/09/18 11:44:47;;;;;;;2.17;1.33;;;;;;;;;;6126188;23;20025;-82
2023/09/18 11:47:19;;;;;;;1.58;1.25;;;24.50;72.40;;;;;;6125651;23;20013;-82
2023/09/18 11:49:50;;;;;;;3.13;1.35;;;24.60;66.50;;;;;;6125969;23;19998;-82
2023/09/18 11:52:18;;;;;;;3.80;1.40;;;24.70;70.80;;;;;;6125977;23;20009;-82
2023/09/18 11:54:46;;;;;;;2.60;1.02;;;;;;;;;;6125708;23;20001;-82
2023/09/18 11:57:13;;;;;;;1.95;1.00;;;;;;;;;;6125804;23;20020;-82
2023/09/18 11:59:43;;;;;;;2.15;1.25;;;24.50;72.30;;;;;;6125992;23;20013;-82
2023/09/18 12:02:20;;;;;;;1.50;1.00;;;23.30;66.40;;;;;;6134721;23;20373;-83
2023/09/18 12:04:47;;;;;;;1.80;1.23;;;;;;;;;;6125895;23;20061;-82
2023/09/18 12:07:13;;;;;;;2.55;1.38;;;;;;;;;;6125913;23;20010;-82
2023/09/18 12:09:39;;;;;;;1.40;1.30;;;;;;;;;;6135765;23;20082;-82
2023/09/18 12:12:07;;;;;;;1.60;1.25;;;24.60;70.10;;;;;;6135377;23;19998;-82
2023/09/18 12:14:33;;;;;;;3.60;1.20;;;24.70;71.40;;;;;;6135337;23;19998;-82
2023/09/18 12:17:01;;;;;;;2.15;1.20;;;24.80;70.40;;;;;;6135221;23;20437;-82
2023/09/18 12:19:27;;;;;;;2.50;1.17;;;;;;;;;;6125699;23;20094;-82
2023/09/18 12:21:54;;;;;;;1.50;0.82;;;;;;;;;;6125387;23;20049;-82
2023/09/18 12:24:27;;;;;;;3.53;1.00;;;25.00;65.70;;;;;;6125672;23;20006;-82
2023/09/18 12:26:54;;;;;;;1.70;1.35;;;25.10;68.40;;;;;;6125651;23;20329;-83
2023/09/18 12:29:21;;;;;;;1.02;0.93;;;25.30;70.80;;;;;;6125309;23;20005;-82
2023/09/18 12:31:48;;;;;;;1.85;1.20;;;;;;;;;;6125060;23;20424;-83
2023/09/18 12:34:15;;;;;;;1.10;1.00;;;25.50;69.80;;;;;;6125234;23;20041;-83
2023/09/18 12:36:43;;;;;;;2.08;1.35;;;25.50;70.10;;;;;;6125501;23;20008;-83
2023/09/18 12:39:10;;;;;;;2.00;1.35;;;;;;;;;;6125553;23;20034;-84
2023/09/18 12:41:37;;;;;;;2.20;1.20;;;25.70;67.60;;;;;;6125426;23;19998;-83
2023/09/18 12:44:05;;;;;;;1.35;0.90;;;25.70;69.60;;;;;;6125549;23;20358;-83
2023/09/18 12:46:32;;;;;;;2.33;1.20;;;;;;;;;;6125312;23;20002;-82
2023/09/18 12:48:59;;;;;;;2.13;1.15;;;;;;;;;;6125276;23;20101;-82
2023/09/18 12:51:31;;;;;;;1.05;0.80;;;26.10;63.10;;;;;;6125555;23;20006;-82
2023/09/18 12:54:06;;;;;;;1.27;1.05;;;26.10;63.10;;;;;;6125453;23;20002;-82
2023/09/18 12:56:33;;;;;;;1.15;0.85;;;;;;;;;;6125077;23;20001;-82
2023/09/18 12:58:59;;;;;;;2.13;1.10;;;;;;;;;;6124884;23;20509;-82
2023/09/18 13:01:26;;;;;;;1.63;1.00;;;;;;;;;;6124660;23;19998;-82
2023/09/18 13:03:55;;;;;;;1.48;0.93;;;25.90;69.50;;;;;;6125350;23;20010;-83
2023/09/18 13:06:21;;;;;;;0.95;0.90;;;;;;;;;;6125510;23;20012;-83
2023/09/18 13:08:49;;;;;;;2.15;0.82;;;26.10;69.50;;;;;;6125233;23;20006;-82
2023/09/18 13:11:16;;;;;;;1.52;1.10;;;;;;;;;;6125142;23;20025;-83
2023/09/18 13:13:46;;;;;;;2.78;1.00;;;;;;;;;;6124923;23;20013;-83
2023/09/18 13:16:12;;;;;;;1.00;1.00;;;;;;;;;;6125127;23;20005;-82
2023/09/18 13:18:39;;;;;;;1.38;1.08;;;;;;;;;;6125097;23;20017;-83
2023/09/18 13:21:11;;;;;;;1.58;1.17;;;26.40;62.70;;;;;;6125080;23;19998;-83
2023/09/18 13:23:38;;;;;;;1.58;1.00;;;;;;;;;;6124710;23;20026;-83
2023/09/18 13:26:06;;;;;;;1.35;1.10;;;26.30;66.80;;;;;;6125180;23;20021;-83
2023/09/18 13:28:34;;;;;;;1.17;1.08;;;;;;;;;;6124918;23;20361;-83
2023/09/18 13:31:00;;;;;;;1.65;1.20;;;;;;;;;;6124609;23;20457;-83
2023/09/18 13:33:27;;;;;;;1.50;0.90;;;;;;;;;;6124566;23;20002;-83
2023/09/18 13:35:55;;;;;;;2.08;1.10;;;;;;;;;;6099798;23;19998;-71
2023/09/18 13:38:22;;;;;;;1.40;1.08;;;;;;;;;;6124451;23;20064;-71
2023/09/18 13:40:49;;;;;;;1.10;1.00;;;;;;;;;;6124775;23;20002;-71
2023/09/18 13:43:15;;;;;;;1.08;1.02;;;;;;;;;;6124941;23;20006;-71
2023/09/18 13:45:42;;;;;;;1.92;1.13;;;;;;;;;;6124969;23;20005;-71
2023/09/18 13:48:08;;;;;;;1.92;0.80;;;;;;;;;;6125050;23;20006;-71
2023/09/18 13:50:36;;;;;;;1.23;1.10;;;26.00;70.40;;;;;;6124926;23;20002;-71
2023/09/18 13:53:06;;;;;;;2.30;1.20;;;;;;;;;;6124342;23;20072;-71
2023/09/18 13:55:33;;;;;;;1.98;1.10;;;;;;;;;;6134347;23;20097;-71
2023/09/18 13:58:02;;;;;;;1.50;1.17;;;;;;;;;;6124683;23;20006;-71
2023/09/18 14:00:29;;;;;;;1.95;1.20;;;;;;;;;;6124832;23;20001;-71
2023/09/18 14:02:56;;;;;;;1.35;0.80;;;;;;;;;;6124153;23;20021;-71
2023/09/18 14:05:22;;;;;;;2.25;1.08;;;;;;;;;;6124967;23;20010;-71
2023/09/18 14:07:48;;;;;;;1.38;1.20;;;;;;;;;;6124475;23;20398;-71
2023/09/18 14:10:15;;;;;;;1.15;0.80;;;;;;;;;;6124392;23;20021;-72
2023/09/18 14:12:42;;;;;;;1.27;1.00;;;;;;;;;;6124771;23;20099;-71
2023/09/18 14:15:09;;;;;;;2.25;1.00;;;;;;;;;;6124755;23;20006;-71
2023/09/18 14:17:35;;;;;;;3.50;0.95;;;;;;;;;;6124680;23;20036;-71